/BCO-DMO/Coral_Bleaching_Skeletal_Records/water_chemistry ---- Level 0

      Directory  DocumentationDownload and Other Operations...

 - At level 0 -  - At last level -       Flat list

#  Water chemistry
#  Pi: Anne Cohen  
#  Data Version 1: 2019-09-30
=========================
date_UTC      time_UTC  latitude  longitude  salinity  temperature  pressure     PO4         NO3_NO2     TALK        DIC         nTALK       nDIC        pH          pCO2        bicarbonate  carbonate  OM_ar       ISO_DateTime_UTC        
-------------------------
2012-09-13    07:23:00  -0.3712   -159.937   35.536    27.7         0.0          0.230025    4.352088    2335.496    2035.283    2300.269    2004.584    7.993174    462.7064    1808.08      214.9817   3.443474    2012-09-13T07:23:00Z    
2012-09-14    01:00:00  -0.3715   -159.9822  35.539    28.4         5.666667     0.611655    5.813831    2319.126    2031.275    2283.953    2000.468    7.963586    498.1192    1811.97      206.3654   3.315117    2012-09-14T01:00:00Z    
2012-09-14    18:18:00  -0.3739   -159.9834  35.535    28.0         5.0          0.150182    4.867703    2316.728    2024.447    2281.848    1993.968    7.978234    478.0471    1802.567     209.3439   3.356297    2012-09-14T18:18:00Z    
2012-09-15    16:25:00  -0.3689   -160.0081  35.558    27.8         20.333333    0.286895    5.002864    2314.611    2043.042    2278.289    2010.981    7.944087    524.6716    1833.467     195.7513   3.128612    2012-09-15T16:25:00Z    
2012-09-15    17:30:00  -0.3691   -160.0083  35.581    27.6         13.0         0.073831    4.987846    2326.961    2043.467    2288.964    2010.099    7.966696    495.8469    1826.364     203.9777   3.25917     2012-09-15T17:30:00Z    
2012-09-16    09:48:00  -0.3672   -160.0142  35.511    28.5         0.0          0.25846     4.602387    2328.05     2049.475    2294.55     2019.983    7.945937    525.8914    1834.71      201.1348   3.235724    2012-09-16T09:48:00Z    
2012-09-16    18:15:00  -0.3696   -160.0083  35.547    27.3         8.0          0.349752    5.193091    2330.489    2038.465    2294.627    2007.097    7.985343    471.9017    1816.563     209.3186   3.342323    2012-09-16T18:15:00Z    
2015-11-12    19:30:00  -0.3815   -159.9715  34.214    31.62        0.963864     0.135175    0.04        2280.709    1911.048    2333.103    1954.951    8.071846    359.9174    1642.151     260.1551   4.300617    2015-11-12T19:30:00Z    
2015-11-12    21:33:00  -0.3688   -160.0089  34.236    31.58        1.292175     0.136161    0.04        2274.021    1926.127    2324.767    1969.11     8.03999     393.9342    1670.785     245.7657   4.060947    2015-11-12T21:33:00Z    
2015-11-12    23:00:00  -0.3687   -160.0077  34.2436   31.5         0.048572     0.211642    0.479827    2262.017    1879.905    2311.982    1921.43     8.095056    333.1516    1604.571     267.2218   4.413705    2015-11-12T23:00:00Z    
2015-11-12    23:00:00  -0.3687   -160.0077  34.2348   30.42        8.763739     0.187468    0.446595    2276.441    1913.653    2327.323    1956.426    8.079145    352.9327    1649.606     255.2411   4.184501    2015-11-12T23:00:00Z    
2015-11-13    02:30:00  -0.369    -160.0081  34.3258   31.6         0.06847      0.204242    0.412906    2270.283    1885.448    2314.874    1922.48     8.095084    333.9331    1608.071     269.2664   4.447542    2015-11-13T02:30:00Z    
2015-11-13    02:30:00  -0.369    -160.0081  34.3535   30.35        9.619338     0.140108    0.04        2280.823    1914.266    2323.746    1950.291    8.083644    348.6044    1647.829     257.7309   4.219603    2015-11-13T02:30:00Z    
2015-11-13    03:40:00  -0.3684   -160.0093  34.2379   30.49        0.06847      nd          nd          2270.657    1896.777    2321.199    1938.998    8.096555    334.5992    1626.051     262.3915   4.307835    2015-11-13T03:40:00Z    
2015-11-13    03:40:00  -0.3684   -160.0093  34.2409   30.42        7.351007     nd          nd          2279.618    1908.635    2330.156    1950.948    8.091365    341.0179    1639.239     260.888    4.277609    2015-11-13T03:40:00Z    
2015-11-13    04:09:00  -0.3679   -160.0091  34.2373   30.07        0.028675     nd          nd          2271.799    1896.882    2322.407    1939.139    8.104107    327.9738    1625.58      263.0534   4.308117    2015-11-13T04:09:00Z    
2015-11-13    04:09:00  -0.3679   -160.0091  34.2421   29.73        8.107117     nd          nd          2279.764    1916.542    2330.223    1958.962    8.089698    343.6663    1652.086     255.7449   4.176012    2015-11-13T04:09:00Z    
2015-11-13    04:27:00  -0.3692   -160.008   34.2479   29.22        0.038624     nd          nd          2276.877    1908.32     2326.878    1950.228    8.106026    328.0302    1640.91      258.9966   4.220766    2015-11-13T04:27:00Z    
2015-11-13    04:27:00  -0.3692   -160.008   34.2489   29.37        2.883986     nd          nd          2274.79     1906.341    2324.677    1948.148    8.103907    329.4597    1639.068     258.8525   4.220515    2015-11-13T04:27:00Z    
2015-11-13    06:03:00  -0.3646   -160.0746  34.2558   28.12        0.098317     0.112974    0.04        2277.77     1899.995    2327.254    1941.272    8.1357      301.9341    1627.374     264.6746   4.286937    2015-11-13T06:03:00Z    
2015-11-13    18:23:00  -0.3774   -159.9776  34.2503   30.47        1.998541     0.159842    0.189837    2278.497    1918.139    2328.37     1960.125    8.074454    358.3071    1655.405     253.8051   4.165061    2015-11-13T18:23:00Z    
2015-11-13    19:48:00  -0.3686   -159.9787  34.381    30.82        0.048572     0.116921    0.04        2278.598    1913.174    2319.623    1947.619    8.075432    356.342     1647.385     256.9847   4.22304     2015-11-13T19:48:00Z    
2015-11-13    19:48:00  -0.3686   -159.9787  34.4135   30.56        9.121897     0.129748    0.125192    2277.095    1910.659    2315.903    1943.222    8.080317    350.9156    1644.478     257.4613   4.218861    2015-11-13T19:48:00Z    
2015-11-13    21:00:00  -0.371    -159.9839  34.2307   31.87        0.078419     0.182042    0.652365    2260.725    1892.025    2311.532    1934.546    8.070005    358.1076    1624.766     258.6094   4.281593    2015-11-13T21:00:00Z    
2015-11-13    21:23:00  -0.3698   -159.9816  34.236    31.28        0.148061     0.178095    0.541741    2270.229    1920.213    2320.89     1963.064    8.048299    384.2896    1663.909     246.9002   4.072759    2015-11-13T21:23:00Z    
2015-11-13    22:00:00  -0.371    -159.9839  34.2785   31.75        4.714569     0.186975    0.697889    2259.9      1908.822    2307.467    1948.999    8.044134    386.0676    1652.35      247.1251   4.084822    2015-11-13T22:00:00Z    
2015-11-13    22:01:00  -0.3691   -159.98    34.227    31.24        0.118214     0.275603    0.428701    2272.465    1907.219    2323.788    1950.292    8.071834    359.0874    1641.667     256.7561   4.234597    2015-11-13T22:01:00Z    
2015-11-13    22:23:00  -0.3698   -159.9816  34.2291   31.2         1.302124     0.199947    0.462667    2267.074    1902.557    2318.133    1945.406    8.072309    357.7097    1637.694     256.0942   4.222012    2015-11-13T22:23:00Z    
2015-11-13    23:01:00  -0.3691   -159.98    34.2211   31.29        1.25238      0.236301    0.408964    2274.413    1908.413    2326.181    1951.85     8.072009    359.1408    1642.249     257.3771   4.245751    2015-11-13T23:01:00Z    
2015-11-14    01:35:00  -0.3774   -159.9771  34.2625   31.91        0.028675     0.206334    0.643969    2264.518    1901.683    2313.262    1942.616    8.059394    369.9504    1637.822     254.9347   4.220848    2015-11-14T01:35:00Z    
2015-11-14    01:35:00  -0.3774   -159.9771  34.2458   31.85        1.869207     0.199947    0.919366    2278.444    1916.828    2328.622    1959.042    8.056169    375.995     1652.952     254.7909   4.216522    2015-11-14T01:35:00Z    
2015-11-14    03:45:00  -0.371    -159.9839  34.2344   31.85        0.0          0.206334    0.916612    2261.426    1906.937    2311.999    1949.582    8.048384    381.785     1648.255     249.4559   4.129459    2015-11-14T03:45:00Z    
2015-11-14    04:16:00  -0.3715   -159.9822  34.2413   31.85        0.0          0.168506    0.592562    2276.887    1921.089    2327.337    1963.656    8.047709    385.2741    1660.779     251.0016   4.154838    2015-11-14T04:16:00Z    
2015-11-14    04:45:00  -0.371    -159.9839  34.2291   31.85        3.2          0.195526    0.990051    2256.468    1900.863    2307.287    1943.674    8.050941    377.9547    1641.768     249.9625   4.136488    2015-11-14T04:45:00Z    
2015-11-14    05:16:00  -0.3715   -159.9822  34.2389   31.85        3.2          0.182753    0.553089    2270.351    1922.923    2320.819    1965.668    8.035785    397.618     1668.01      245.3051   4.059126    2015-11-14T05:16:00Z    
2015-11-14    15:38:00  -0.4269   -160.0789  34.2195   27.85        19.568158    0.133134    0.04        2276.288    1900.462    2328.207    1943.809    8.136864    300.5215    1629.214     263.2857   4.24897     2015-11-14T15:38:00Z    
2015-11-14    20:00:00  -0.3664   -160.0077  34.2407   32.43        0.128163     0.17784     0.412177    2273.448    1914.519    2323.863    1956.974    8.044631    387.2444    1652.343     252.938    4.202082    2015-11-14T20:00:00Z    
2015-11-14    20:00:00  -0.3664   -160.0077  34.2475   32.25        8.196656     0.158681    0.15973     2276.597    1914.035    2326.619    1956.091    8.051922    379.5201    1649.559     255.3865   4.233853    2015-11-14T20:00:00Z    
2015-11-14    21:46:00  -0.3686   -160.0093  34.2413   31.24        0.058521     0.180788    0.279069    2268.684    1911.69     2318.952    1954.048    8.059862    371.2654    1651.275     251.321    4.144561    2015-11-14T21:46:00Z    
2015-11-14    21:46:00  -0.3686   -160.0093  34.2505   31.07        8.903023     0.147381    0.04        2276.875    1923.354    2326.699    1965.442    8.055229    377.639     1664.665     249.4048   4.104229    2015-11-14T21:46:00Z    
2015-11-14    22:09:00  -0.3692   -160.008   34.2401   31.03        0.048572     0.162611    0.355262    2265.217    1889.358    2315.489    1931.289    8.092219    337.2225    1617.722     263.3373   4.337255    2015-11-14T22:09:00Z    
2015-11-14    22:09:00  -0.3692   -160.008   34.2373   30.87        4.615081     0.186192    0.277233    2273.376    1909.385    2324.02     1951.92     8.07506     356.1937    1644.603     255.9844   4.209934    2015-11-14T22:09:00Z    
2015-11-14    22:25:00  -0.3679   -160.009   34.2442   31.57        0.048572     0.179314    0.282741    2264.579    1884.554    2314.56     1926.147    8.090535    337.9656    1610.295     266.0419   4.396084    2015-11-14T22:25:00Z    
2015-11-14    22:25:00  -0.3679   -160.009   34.2521   31.49        8.286196     0.152785    0.04        2276.71     1912.842    2326.422    1954.609    8.064941    366.3978    1647.782     256.1369   4.226074    2015-11-14T22:25:00Z    
2015-11-14    22:45:00  -0.3749   -160.0133  34.2552   31.03        0.038624     0.151803    0.179467    2270.423    1884.599    2319.788    1925.575    8.105924    324.4843    1606.607     270.0079   4.446647    2015-11-14T22:45:00Z    
2015-11-14    22:45:00  -0.3749   -160.0133  34.2538   30.68        8.405582     0.118396    0.04        2280.671    1905.192    2330.355    1946.695    8.093666    338.3745    1633.054     263.7449   4.330201    2015-11-14T22:45:00Z    
2015-11-15    02:28:00  -0.3714   -159.9523  34.1272   29.46        0.06847      0.113484    0.04        2270.557    1897.006    2328.626    1945.522    8.112493    320.9706    1626.756     262.0585   4.28001     2015-11-15T02:28:00Z    
2016-05-17    22:30:00  -0.3694   -160.0084  35.2743   28.36        16.762591    0.410998    2.864169    2347.818    1994.526    2329.56     1979.016    8.068964    373.9754    1734.705     250.0833   4.018724    2016-05-17T22:30:00Z    
2016-05-17    22:40:00  -0.3694   -160.0084  35.2814   28.7         0.0          0.444686    2.788722    2346.809    1995.399    2328.091    1979.484    8.061588    382.0997    1736.625     248.905    4.015245    2016-05-17T22:40:00Z    
2016-05-17    23:35:00  -0.3693   -160.0082  35.2737   30.93        3.381427     0.445648    2.831568    2347.848    1988.701    2329.631    1973.27     8.040394    403.2294    1724.389     254.4185   4.154552    2016-05-17T23:35:00Z    
2016-05-17    00:00:00  -0.3664   -160.0068  35.2779   28.77        8.186708     0.477412    2.775682    2349.629    2000.969    2331.12     1985.206    8.055587    388.8798    1743.729     247.2123   3.98555     2016-05-17T00:00:00Z    
2016-05-17    00:15:00  -0.3664   -160.0068  35.2808   29.33        1.710025     0.438911    2.916329    2338.482    1955.734    2319.87     1940.168    8.100629    338.6215    1678.09      269.0252   4.353828    2016-05-17T00:15:00Z    
2016-05-17    00:35:00  -0.3683   -160.0093  35.2796   29.05        1.983618     0.420623    2.681141    2349.928    1995.953    2331.304    1980.135    8.059772    384.1135    1735.317     250.7978   4.052629    2016-05-17T00:35:00Z    
2016-05-17    00:50:00  -0.3683   -160.0093  35.2812   29.98        10.852992    0.410998    2.73563     2348.466    1993.709    2329.748    1977.818    8.047252    396.4091    1732.347     251.4237   4.079401    2016-05-17T00:50:00Z    
2016-05-17    01:05:00  -0.3747   -160.013   35.2855   29.09        9.629287     0.440836    2.7999      2347.941    1989.101    2328.944    1973.007    8.066621    375.8109    1725.646     253.8378   4.098549    2016-05-17T01:05:00Z    
2016-05-17    01:30:00  -0.3747   -160.013   35.284    28.48        1.630435     0.398485    2.79338     2346.294    1978.499    2327.409    1962.574    8.089804    352.0437    1709.852     259.5065   4.180313    2016-05-17T01:30:00Z    
2016-05-18    21:30:00  -0.3686   -159.9787  35.2964   28.82        11.226072    0.453349    3.075605    2348.816    1995.714    2329.092    1978.955    8.061587    381.7766    1735.817     250.0645   4.030472    2016-05-18T21:30:00Z    
2016-05-18    22:00:00  -0.3686   -159.9787  35.2976   29.0         1.9289       0.43121     3.177132    2348.137    1996.005    2328.339    1979.176    8.057828    385.9863    1736.618     249.4879   4.029751    2016-05-18T22:00:00Z    
2016-05-18    22:15:00  -0.3698   -159.9816  35.3015   28.3         6.5          0.483668    3.436537    2343.021    1989.123    2323.01     1972.134    8.071389    370.913     1729.257     250.1966   4.02367     2016-05-18T22:15:00Z    
2016-05-18    22:35:00  -0.3698   -159.9816  35.306    28.57        2.68501      0.455274    3.442591    2340.253    1986.389    2319.969    1969.172    8.067929    373.987     1726.555     250.1457   4.030399    2016-05-18T22:35:00Z    
2016-05-18    23:00:00  -0.371    -159.9839  35.3169   29.3         3.7          0.418698    3.067222    2323.239    1987.162    2302.392    1969.331    8.032285    410.4341    1738.592     238.1194   3.851065    2016-05-18T23:00:00Z    
2016-05-18    23:30:00  -0.371    -159.9839  35.3114   29.23        1.7          0.498106    3.266084    2322.055    1989.947    2301.578    1972.398    8.027231    416.4184    1743.882     235.4438   3.807407    2016-05-18T23:30:00Z    
2016-05-18    00:30:00  -0.3627   -159.9949  35.2922   28.96        10.66        0.386934    2.867894    2346.441    1992.328    2327.013    1975.833    8.061556    381.2627    1731.834     250.7079   4.044432    2016-05-18T00:30:00Z    
2016-05-18    00:55:00  -0.3627   -159.9949  35.3029   29.05        1.983618     0.453349    2.540029    2337.127    1948.429    2317.075    1931.711    8.113311    326.2372    1667.339     272.735    4.406358    2016-05-18T00:55:00Z    
2016-05-18    01:15:00  -0.3694   -160.0084  35.3145   29.09        9.629287     0.458642    3.493354    2350.726    2006.004    2329.792    1988.139    8.044136    401.5583    1750.995     244.7338   3.95071     2016-05-18T01:15:00Z    
2016-05-19    00:30:00  -0.3693   -160.0082  35.3125   27.43        10.554527    0.4957      4.596642    2348.007    2014.522    2327.228    1996.694    8.051414    394.7406    1767.121     236.8932   3.790178    2016-05-19T00:30:00Z    
2016-05-20    22:25:00  -0.3695   -160.0086  35.3208   28.02        5.5055       0.523613    4.512812    2347.09     2015.012    2325.772    1996.71     8.040517    406.5983    1768.263     236.0809   3.791104    2016-05-20T22:25:00Z    
2016-05-20    22:25:00  -0.3694   -160.0084  35.3149   28.7         7.942962     0.5265      4.483006    2347.141    2012.054    2326.212    1994.113    8.035255    411.8833    1763.22      238.1994   3.837974    2016-05-20T22:25:00Z    
2016-05-20    23:00:00  -0.3694   -160.0084  35.3254   29.66        1.0          0.469711    4.042437    2340.208    1984.257    2318.651    1965.979    8.054854    386.9641    1722.8       251.6859   4.079666    2016-05-20T23:00:00Z    
2016-05-20    23:20:00  -0.3693   -160.0082  35.3447   27.66        15.593605    0.694461    8.74107     2352.138    2056.663    2329.199    2036.605    7.984347    477.8557    1831.663     212.3523   3.398633    2016-05-20T23:20:00Z    
2016-05-20    00:40:00  -0.3683   -160.0093  35.3261   28.9         1.0          0.474524    4.061997    2338.693    1971.523    2317.105    1953.323    8.083212    356.9528    1703.622     258.7264   4.176304    2016-05-20T00:40:00Z    
2016-05-20    01:16:00  -0.3683   -160.0093  35.3311   27.1         10.713708    0.543826    6.13817     2350.953    2033.985    2328.922    2014.924    8.028897    421.8418    1796.518     226.151    3.611781    2016-05-20T01:16:00Z    
2016-05-20    01:30:00  -0.3683   -160.0093  35.3254   25.11        20.398885    0.679542    9.220295    2349.49     2063.583    2327.848    2044.574    8.005919    451.1819    1845.539     205.3308   3.24373     2016-05-20T01:30:00Z    
2016-05-21    20:15:00  -0.3686   -160.0214  35.3293   24.32        1.0          0.508212    4.328388    2352.365    2016.148    2330.438    1997.356    8.101213    346.1014    1768.301     237.8996   3.754386    2016-05-21T20:15:00Z    
2016-05-21    22:00:00  -0.3686   -160.017   35.3023   28.6         2.1          0.5188      6.180084    2348.213    2032.976    2328.105    2015.567    8.0052      449.5666    1795.927     225.4114   3.632816    2016-05-21T22:00:00Z    
2016-05-21    22:19:00  -0.3687   -160.0125  35.3116   28.34        2.117927     0.519763    5.481507    2350.943    2027.508    2330.197    2009.617    8.021722    429.6473    1785.581     230.738    3.713259    2016-05-21T22:19:00Z    
2016-05-21    23:30:00  -0.3664   -160.0068  35.3319   27.92        1.0          0.501475    4.541687    2346.338    2015.871    2324.297    1996.934    8.039692    407.7094    1770.144     235.003    3.773539    2016-05-21T23:30:00Z    
2016-05-21    23:30:00  -0.3664   -160.0068  35.3031   27.84        10.90771     0.597727    6.775273    2346.554    2034.845    2326.407    2017.375    8.01037     443.0858    1800.384     222.7834   3.572162    2016-05-21T23:30:00Z    
2016-05-21    23:50:00  -0.3694   -160.0084  35.3102   26.41        1.0          0.510137    5.792607    2324.569    1954.109    2304.147    1936.942    8.127569    314.4415    1685.904     259.6261   4.137933    2016-05-21T23:50:00Z    
2016-05-21    23:50:00  -0.3694   -160.0084  35.3254   25.72        10.818171    0.683392    9.527669    2350.366    2068.949    2328.715    2049.891    7.989261    472.8844    1853.123     202.7045   3.21556     2016-05-21T23:50:00Z    
2016-05-21    00:12:00  -0.3747   -160.013   35.2972   26.91        1.0          0.61024     7.908366    2347.677    2031.953    2327.91     2014.844    8.030781    419.7176    1795.481     225.159    3.597794    2016-05-21T00:12:00Z    
2016-05-21    00:12:00  -0.3747   -160.013   35.3366   26.78        11.280791    0.681467    9.51556     2350.963    2070.971    2328.569    2051.244    7.971022    496.8136    1855.391     202.1494   3.222921    2016-05-21T00:12:00Z    
2016-05-22    18:53:00  -0.3687   -159.9781  35.31     27.34        1.0          0.43121     4.41408     2349.913    2013.655    2329.282    1995.976    8.0572      389.071     1764.454     238.8238   3.824071    2016-05-22T18:53:00Z    
2016-05-22    18:53:00  -0.3687   -159.9781  35.5884   27.16        10.131702    0.44613     4.315348    2351.262    2015.248    2312.388    1981.929    8.055511    389.994     1766.532     238.2822   3.799865    2016-05-22T18:53:00Z    
2016-05-22    19:20:00  -0.3698   -159.9816  35.3151   27.35        1.0          0.476449    4.830432    2346.564    2018.289    2325.627    2000.281    8.044815    402.5256    1774.072     233.4842   3.738627    2016-05-22T19:20:00Z    
2016-05-22    19:20:00  -0.3698   -159.9816  35.3139   27.18        6.122327     0.472599    4.914262    2347.1      2018.046    2326.237    2000.107    8.048254    398.644     1773.416     233.9573   3.740684    2016-05-22T19:20:00Z    
2016-05-22    19:37:00  -0.371    -159.9839  35.3228   27.4         1.0          0.46538     4.474623    2340.463    2044.885    2319.074    2026.198    7.991302    467.2827    1820.24      212.2001   3.398498    2016-05-22T19:37:00Z    
2016-05-22    19:37:00  -0.371    -159.9839  35.3226   27.3         4.321591     0.461049    4.398245    2341.503    2042.522    2320.118    2023.868    7.998243    458.3755    1815.893     214.3916   3.43042     2016-05-22T19:37:00Z    
2016-05-22    19:57:00  -0.3736   -159.9832  35.3258   27.85        1.0          0.498587    4.425257    2345.799    2039.139    2324.165    2020.332    8.002341    453.5465    1807.567     219.6225   3.525439    2016-05-22T19:57:00Z    
2016-05-22    19:57:00  -0.3736   -159.9832  35.3246   27.7         4.4          0.478855    4.305567    2345.088    2048.861    2323.539    2030.034    7.987161    473.27      1823.487     212.8601   3.412818    2016-05-22T19:57:00Z    
2016-05-22    20:30:00  -0.3793   -159.9829  35.3307   27.95        1.0          0.501475    5.303602    2339.659    2021.311    2317.76     2002.391    8.020874    428.958     1783.116     226.9207   3.644357    2016-05-22T20:30:00Z    
2016-05-22    20:30:00  -0.3793   -159.9829  35.3165   27.86        5.714426     0.498587    5.156435    2339.185    2027.582    2318.222    2009.411    8.011212    440.7674    1793.431     222.5413   3.570713    2016-05-22T20:30:00Z    
2016-05-22    21:02:00  -0.3777   -159.9772  35.618    27.86        1.0          0.440836    4.329319    2346.716    2017.314    2305.999    1982.312    8.035349    411.8575    1772.474     234.008    3.748596    2016-05-22T21:02:00Z    
2016-05-22    21:02:00  -0.3777   -159.9772  35.3222   27.74        7.181877     0.484149    4.611545    2347.983    2016.119    2326.566    1997.728    8.044231    402.7105    1769.546     235.9352   3.782317    2016-05-22T21:02:00Z    
2016-05-23    22:57:00  -0.3693   -160.0082  35.3319   25.82        4.540465     0.645853    8.720113    2347.159    2065.178    2325.111    2045.778    7.989519    472.0988    1849.092     203.0171   3.22446     2016-05-23T22:57:00Z    
2016-05-23    23:14:00  -0.3694   -160.0084  35.3332   24.76        1.0          0.605427    8.276749    2347.376    2058.375    2325.239    2038.964    8.017392    437.6484    1838.706     207.2289   3.27674     2016-05-23T23:14:00Z    
2016-05-23    23:14:00  -0.3694   -160.0084  35.3348   24.43        10.698785    0.621309    8.437422    2347.602    2063.007    2325.359    2043.46     8.014171    441.4216    1846.095     204.2615   3.220894    2016-05-23T23:14:00Z    
2016-05-23    23:33:00  -0.3695   -160.0086  35.3461   25.26        20.312134    0.62564     9.050308    2348.55     2070.165    2325.554    2049.895    7.990542    470.6038    1856.398     200.5595   3.170241    2016-05-23T23:33:00Z